createdAt,value
2018-09-17T00:00:34.469Z,1014.22
2018-09-17T00:01:34.440Z,1014.26
2018-09-17T00:02:34.388Z,1014.24
2018-09-17T00:03:34.348Z,1014.26
2018-09-17T00:04:34.316Z,1014.28
2018-09-17T00:05:34.332Z,1014.22
2018-09-17T00:06:34.250Z,1014.22
2018-09-17T00:07:34.197Z,1014.20
2018-09-17T00:08:34.173Z,1014.20
2018-09-17T00:09:34.107Z,1014.18
2018-09-17T00:10:34.140Z,1014.24
2018-09-17T00:11:34.045Z,1014.23
2018-09-17T00:12:34.003Z,1014.27
2018-09-17T00:13:33.953Z,1014.26
2018-09-17T00:14:33.929Z,1014.28
2018-09-17T00:15:33.899Z,1014.24
2018-09-17T00:16:45.104Z,1014.25
2018-09-17T00:17:33.791Z,1014.28
2018-09-17T00:18:33.738Z,1014.26
2018-09-17T00:19:33.693Z,1014.32
2018-09-17T00:20:33.702Z,1014.32
2018-09-17T00:21:33.615Z,1014.31
2018-09-17T00:22:33.583Z,1014.31
2018-09-17T00:23:33.564Z,1014.32
2018-09-17T00:24:33.519Z,1014.31
2018-09-17T00:25:33.527Z,1014.25
2018-09-17T00:26:33.419Z,1014.26
2018-09-17T00:27:33.373Z,1014.25
2018-09-17T00:28:33.344Z,1014.25
2018-09-17T00:29:33.299Z,1014.20
2018-09-17T00:30:33.250Z,1014.29
2018-09-17T00:31:33.266Z,1014.20
2018-09-17T00:32:33.167Z,1014.20
2018-09-17T00:33:33.128Z,1014.20
2018-09-17T00:34:33.146Z,1014.19
2018-09-17T00:35:33.058Z,1014.20
2018-09-17T00:36:33.051Z,1014.23
2018-09-17T00:37:32.967Z,1014.27
2018-09-17T00:38:32.941Z,1014.22
2018-09-17T00:39:32.899Z,1014.27
2018-09-17T00:40:32.854Z,1014.27
2018-09-17T00:41:32.866Z,1014.30
2018-09-17T00:42:32.775Z,1014.30
2018-09-17T00:43:32.722Z,1014.30
2018-09-17T00:44:32.679Z,1014.31
2018-09-17T00:45:32.654Z,1014.32
2018-09-17T00:46:32.629Z,1014.30
2018-09-17T00:47:32.598Z,1014.32
2018-09-17T00:48:32.531Z,1014.32
2018-09-17T00:49:32.535Z,1014.30
2018-09-17T00:50:32.530Z,1014.35
2018-09-17T00:51:32.392Z,1014.30
2018-09-17T00:52:32.423Z,1014.32
2018-09-17T00:53:32.499Z,1014.30
2018-09-17T00:54:32.286Z,1014.30
2018-09-17T00:55:32.247Z,1014.33
2018-09-17T00:56:32.198Z,1014.34
2018-09-17T00:57:32.203Z,1014.36
2018-09-17T00:58:32.121Z,1014.37
2018-09-17T00:59:32.082Z,1014.41
2018-09-17T01:00:32.065Z,1014.38
2018-09-17T01:01:32.002Z,1014.41
2018-09-17T01:02:31.973Z,1014.37
2018-09-17T01:03:31.912Z,1014.42
2018-09-17T01:04:31.931Z,1014.42
2018-09-17T01:05:31.849Z,1014.41
2018-09-17T01:06:31.788Z,1014.39
2018-09-17T01:07:31.775Z,1014.41
2018-09-17T01:08:31.701Z,1014.42
2018-09-17T01:09:31.678Z,1014.42
2018-09-17T01:10:31.624Z,1014.44
2018-09-17T01:11:31.595Z,1014.44
2018-09-17T01:12:31.610Z,1014.42
2018-09-17T01:13:31.493Z,1014.45
2018-09-17T01:14:31.471Z,1014.45
2018-09-17T01:15:31.441Z,1014.46
2018-09-17T01:16:31.413Z,1014.47
2018-09-17T01:17:31.378Z,1014.42
2018-09-17T01:18:31.325Z,1014.45
2018-09-17T01:19:31.263Z,1014.44
2018-09-17T01:20:31.212Z,1014.41
2018-09-17T01:21:31.210Z,1014.43
2018-09-17T01:22:31.145Z,1014.40
2018-09-17T01:23:31.131Z,1014.43
2018-09-17T01:24:31.074Z,1014.44
2018-09-17T01:25:31.020Z,1014.47
2018-09-17T01:26:30.973Z,1014.47
2018-09-17T01:27:30.929Z,1014.47
2018-09-17T01:28:30.908Z,1014.44
2018-09-17T01:29:30.873Z,1014.41
2018-09-17T01:30:30.834Z,1014.42
2018-09-17T01:31:30.765Z,1014.41
2018-09-17T01:32:30.744Z,1014.42
2018-09-17T01:33:30.701Z,1014.43
2018-09-17T01:34:30.671Z,1014.48
2018-09-17T01:35:30.612Z,1014.45
2018-09-17T01:36:30.568Z,1014.47
2018-09-17T01:37:30.529Z,1014.47
2018-09-17T01:38:30.479Z,1014.49
2018-09-17T01:39:30.477Z,1014.49
2018-09-17T01:40:30.394Z,1014.52
2018-09-17T01:41:30.359Z,1014.52
2018-09-17T01:42:30.326Z,1014.56
2018-09-17T01:43:30.279Z,1014.59
2018-09-17T01:44:30.270Z,1014.56
2018-09-17T01:45:30.203Z,1014.54
2018-09-17T01:46:30.168Z,1014.49
2018-09-17T01:47:30.123Z,1014.48
2018-09-17T01:48:30.073Z,1014.47
2018-09-17T01:49:30.119Z,1014.47
2018-09-17T01:50:30.019Z,1014.50
2018-09-17T01:51:29.950Z,1014.47
2018-09-17T01:52:29.927Z,1014.46
2018-09-17T01:53:29.876Z,1014.39
2018-09-17T01:54:29.824Z,1014.36
2018-09-17T01:55:29.820Z,1014.32
2018-09-17T01:56:29.758Z,1014.30
2018-09-17T01:57:29.712Z,1014.27
2018-09-17T01:58:29.669Z,1014.25
2018-09-17T01:59:29.616Z,1014.23
2018-09-17T02:00:29.631Z,1014.25
2018-09-17T02:01:29.540Z,1014.28
2018-09-17T02:02:29.491Z,1014.30
2018-09-17T02:03:29.453Z,1014.31
2018-09-17T02:04:29.440Z,1014.36
2018-09-17T02:05:29.430Z,1014.40
2018-09-17T02:06:29.394Z,1014.38
2018-09-17T02:07:29.312Z,1014.38
2018-09-17T02:08:29.272Z,1014.37
2018-09-17T02:09:29.273Z,1014.33
2018-09-17T02:10:29.195Z,1014.30
2018-09-17T02:11:39.188Z,1014.29
2018-09-17T02:12:29.096Z,1014.27
2018-09-17T02:13:29.070Z,1014.25
2018-09-17T02:14:28.992Z,1014.25
2018-09-17T02:15:28.959Z,1014.25
2018-09-17T02:16:28.949Z,1014.27
2018-09-17T02:17:28.878Z,1014.25
2018-09-17T02:18:28.840Z,1014.25
2018-09-17T02:19:28.815Z,1014.28
2018-09-17T02:20:28.752Z,1014.22
2018-09-17T02:21:28.727Z,1014.19
2018-09-17T02:22:28.678Z,1014.20
2018-09-17T02:23:28.627Z,1014.19
2018-09-17T02:24:28.597Z,1014.16
2018-09-17T02:25:28.557Z,1014.12
2018-09-17T02:26:28.560Z,1014.12
2018-09-17T02:27:28.479Z,1014.11
2018-09-17T02:28:28.424Z,1014.10
2018-09-17T02:29:28.390Z,1014.09
2018-09-17T02:30:28.367Z,1014.11
2018-09-17T02:31:28.307Z,1014.15
2018-09-17T02:32:28.307Z,1014.14
2018-09-17T02:33:28.243Z,1014.19
2018-09-17T02:34:28.221Z,1014.18
2018-09-17T02:35:28.138Z,1014.19
2018-09-17T02:36:28.105Z,1014.22
2018-09-17T02:37:28.102Z,1014.22
2018-09-17T02:38:28.042Z,1014.22
2018-09-17T02:39:27.992Z,1014.23
2018-09-17T02:40:27.961Z,1014.25
2018-09-17T02:41:27.916Z,1014.26
2018-09-17T02:42:27.911Z,1014.31
2018-09-17T02:43:27.813Z,1014.24
2018-09-17T02:44:27.782Z,1014.28
2018-09-17T02:45:27.746Z,1014.26
2018-09-17T02:46:27.696Z,1014.23
2018-09-17T02:47:27.685Z,1014.27
2018-09-17T02:48:27.625Z,1014.25
2018-09-17T02:49:27.588Z,1014.26
2018-09-17T02:50:27.557Z,1014.25
2018-09-17T02:51:27.484Z,1014.23
2018-09-17T02:52:27.473Z,1014.23
2018-09-17T02:53:27.445Z,1014.25
2018-09-17T02:54:27.374Z,1014.26
2018-09-17T02:55:27.331Z,1014.29
2018-09-17T02:56:27.299Z,1014.25
2018-09-17T02:57:27.254Z,1014.29
2018-09-17T02:58:27.220Z,1014.29
2018-09-17T02:59:38.730Z,1014.33
2018-09-17T03:00:27.118Z,1014.32
2018-09-17T03:01:27.071Z,1014.32
2018-09-17T03:02:27.067Z,1014.34
2018-09-17T03:03:27.015Z,1014.33
2018-09-17T03:04:27.016Z,1014.36
2018-09-17T03:05:26.903Z,1014.34
2018-09-17T03:06:26.876Z,1014.40
2018-09-17T03:07:26.834Z,1014.40
2018-09-17T03:08:26.780Z,1014.43
2018-09-17T03:09:26.768Z,1014.43
2018-09-17T03:10:26.690Z,1014.44
2018-09-17T03:11:26.666Z,1014.43
2018-09-17T03:12:26.650Z,1014.47
2018-09-17T03:13:26.589Z,1014.44
2018-09-17T03:14:26.573Z,1014.41
2018-09-17T03:15:26.531Z,1014.40
2018-09-17T03:16:26.453Z,1014.37
2018-09-17T03:17:26.420Z,1014.38
2018-09-17T03:18:26.386Z,1014.40
2018-09-17T03:19:26.343Z,1014.38
2018-09-17T03:20:26.340Z,1014.44
2018-09-17T03:21:26.263Z,1014.45
2018-09-17T03:22:26.254Z,1014.42
2018-09-17T03:23:26.156Z,1014.42
2018-09-17T03:24:26.176Z,1014.42
2018-09-17T03:25:26.110Z,1014.44
2018-09-17T03:26:26.049Z,1014.45
2018-09-17T03:27:26.051Z,1014.48
2018-09-17T03:28:25.969Z,1014.50
2018-09-17T03:29:25.920Z,1014.48
2018-09-17T03:30:25.904Z,1014.54
2018-09-17T03:31:25.829Z,1014.52
2018-09-17T03:32:25.828Z,1014.51
2018-09-17T03:33:25.777Z,1014.50
2018-09-17T03:34:25.734Z,1014.55
2018-09-17T03:35:25.694Z,1014.52
2018-09-17T03:36:25.630Z,1014.55
2018-09-17T03:37:25.611Z,1014.54
2018-09-17T03:38:25.555Z,1014.52
2018-09-17T03:39:25.525Z,1014.52
2018-09-17T03:40:25.471Z,1014.52
2018-09-17T03:41:25.453Z,1014.51
2018-09-17T03:42:25.408Z,1014.51
2018-09-17T03:43:25.350Z,1014.51
2018-09-17T03:44:25.302Z,1014.51
2018-09-17T03:45:25.268Z,1014.57
2018-09-17T03:46:25.304Z,1014.54
2018-09-17T03:47:25.194Z,1014.55
2018-09-17T03:48:25.151Z,1014.54
2018-09-17T03:49:25.097Z,1014.51
2018-09-17T03:50:25.065Z,1014.51
2018-09-17T03:51:25.053Z,1014.47
2018-09-17T03:52:25.017Z,1014.57
2018-09-17T03:53:24.940Z,1014.61
2018-09-17T03:54:24.911Z,1014.67
2018-09-17T03:55:24.854Z,1014.67
2018-09-17T03:56:24.854Z,1014.65
2018-09-17T03:57:24.763Z,1014.63
2018-09-17T03:58:24.738Z,1014.60
2018-09-17T03:59:24.693Z,1014.58
2018-09-17T04:00:24.672Z,1014.59
2018-09-17T04:01:24.611Z,1014.59
2018-09-17T04:02:24.558Z,1014.57
2018-09-17T04:03:24.514Z,1014.57
2018-09-17T04:04:24.496Z,1014.54
2018-09-17T04:05:24.484Z,1014.55
2018-09-17T04:06:24.404Z,1014.50
2018-09-17T04:07:24.357Z,1014.53
2018-09-17T04:08:24.312Z,1014.55
2018-09-17T04:09:24.280Z,1014.56
2018-09-17T04:10:34.262Z,1014.57
2018-09-17T04:11:24.214Z,1014.55
2018-09-17T04:12:24.147Z,1014.55
2018-09-17T04:13:24.168Z,1014.52
2018-09-17T04:14:24.092Z,1014.52
2018-09-17T04:15:24.115Z,1014.52
2018-09-17T04:16:23.994Z,1014.52
2018-09-17T04:17:24.038Z,1014.47
2018-09-17T04:18:23.909Z,1014.45
2018-09-17T04:19:23.870Z,1014.40
2018-09-17T04:20:23.856Z,1014.41
2018-09-17T04:21:23.806Z,1014.40
2018-09-17T04:22:23.746Z,1014.32
2018-09-17T04:23:23.725Z,1014.35
2018-09-17T04:24:23.717Z,1014.34
2018-09-17T04:25:23.621Z,1014.36
2018-09-17T04:26:23.593Z,1014.36
2018-09-17T04:27:23.527Z,1014.40
2018-09-17T04:28:23.526Z,1014.40
2018-09-17T04:29:23.467Z,1014.36
2018-09-17T04:30:23.460Z,1014.37
2018-09-17T04:31:23.434Z,1014.35
2018-09-17T04:32:23.350Z,1014.36
2018-09-17T04:33:23.301Z,1014.36
2018-09-17T04:34:23.367Z,1014.39
2018-09-17T04:35:34.223Z,1014.41
2018-09-17T04:36:23.157Z,1014.41
2018-09-17T04:37:23.164Z,1014.41
2018-09-17T04:38:23.112Z,1014.39
2018-09-17T04:39:23.662Z,1014.42
2018-09-17T04:40:23.004Z,1014.36
2018-09-17T04:41:22.987Z,1014.37
2018-09-17T04:42:22.913Z,1014.37
2018-09-17T04:43:22.892Z,1014.43
2018-09-17T04:44:22.843Z,1014.48
2018-09-17T04:45:22.807Z,1014.50
2018-09-17T04:46:22.781Z,1014.53
2018-09-17T04:47:22.724Z,1014.53
2018-09-17T04:48:22.688Z,1014.48
2018-09-17T04:49:22.638Z,1014.45
2018-09-17T04:50:22.609Z,1014.45
2018-09-17T04:51:22.588Z,1014.43
2018-09-17T04:52:22.518Z,1014.41
2018-09-17T04:53:22.484Z,1014.37
2018-09-17T04:54:22.447Z,1014.36
2018-09-17T04:55:22.389Z,1014.41
2018-09-17T04:56:22.369Z,1014.42
2018-09-17T04:57:22.336Z,1014.41
2018-09-17T04:58:32.819Z,1014.40
2018-09-17T04:59:22.247Z,1014.45
2018-09-17T05:00:22.224Z,1014.47
2018-09-17T05:01:22.194Z,1014.52
2018-09-17T05:02:22.114Z,1014.51
2018-09-17T05:03:22.076Z,1014.49
2018-09-17T05:04:22.016Z,1014.52
2018-09-17T05:05:22.002Z,1014.52
2018-09-17T05:06:21.942Z,1014.52
2018-09-17T05:07:22.004Z,1014.57
2018-09-17T05:08:21.921Z,1014.50
2018-09-17T05:09:21.838Z,1014.50
2018-09-17T05:10:21.787Z,1014.50
2018-09-17T05:11:21.760Z,1014.52
2018-09-17T05:12:21.738Z,1014.54
2018-09-17T05:13:21.836Z,1014.57
2018-09-17T05:14:21.624Z,1014.58
2018-09-17T05:15:21.581Z,1014.60
2018-09-17T05:16:21.566Z,1014.61
2018-09-17T05:17:21.532Z,1014.62
2018-09-17T05:18:21.480Z,1014.60
2018-09-17T05:19:21.420Z,1014.59
2018-09-17T05:20:21.382Z,1014.63
2018-09-17T05:21:21.340Z,1014.62
2018-09-17T05:22:21.329Z,1014.63
2018-09-17T05:23:21.262Z,1014.63
2018-09-17T05:24:21.238Z,1014.61
2018-09-17T05:25:21.186Z,1014.61
2018-09-17T05:26:21.147Z,1014.60
2018-09-17T05:27:21.135Z,1014.57
2018-09-17T05:28:21.057Z,1014.59
2018-09-17T05:29:21.026Z,1014.56
2018-09-17T05:30:20.984Z,1014.56
2018-09-17T05:31:20.939Z,1014.57
2018-09-17T05:32:20.904Z,1014.63
2018-09-17T05:33:20.884Z,1014.63
2018-09-17T05:34:20.830Z,1014.67
2018-09-17T05:35:20.824Z,1014.66
2018-09-17T05:36:20.745Z,1014.66
2018-09-17T05:37:20.710Z,1014.67
2018-09-17T05:38:29.932Z,1014.70
2018-09-17T05:39:20.654Z,1014.71
2018-09-17T05:40:20.573Z,1014.72
2018-09-17T05:41:20.971Z,1014.72
2018-09-17T05:42:20.486Z,1014.77
2018-09-17T05:43:20.450Z,1014.73
2018-09-17T05:44:20.472Z,1014.73
2018-09-17T05:45:20.400Z,1014.72
2018-09-17T05:46:20.359Z,1014.73
2018-09-17T05:47:31.410Z,1014.72
2018-09-17T05:48:20.312Z,1014.71
2018-09-17T05:49:20.244Z,1014.75
2018-09-17T05:50:20.206Z,1014.79
2018-09-17T05:51:20.132Z,1014.82
2018-09-17T05:52:20.100Z,1014.81
2018-09-17T05:53:20.068Z,1014.84
2018-09-17T05:54:20.052Z,1014.87
2018-09-17T05:55:19.966Z,1014.85
2018-09-17T05:56:19.935Z,1014.90
2018-09-17T05:57:20.387Z,1014.90
2018-09-17T05:58:19.867Z,1014.92
2018-09-17T05:59:19.844Z,1014.91
2018-09-17T06:00:19.770Z,1014.93
2018-09-17T06:01:19.740Z,1014.93
2018-09-17T06:02:19.689Z,1014.96
2018-09-17T06:03:19.656Z,1014.95
2018-09-17T06:04:19.615Z,1014.96
2018-09-17T06:05:19.624Z,1014.96
2018-09-17T06:06:19.528Z,1015.00
2018-09-17T06:07:19.498Z,1015.04
2018-09-17T06:08:19.468Z,1015.03
2018-09-17T06:09:19.446Z,1015.06
2018-09-17T06:10:19.399Z,1015.06
2018-09-17T06:11:30.249Z,1015.08
2018-09-17T06:12:19.324Z,1015.15
2018-09-17T06:13:19.266Z,1015.15
2018-09-17T06:14:19.381Z,1015.12
2018-09-17T06:15:19.182Z,1015.15
2018-09-17T06:16:19.146Z,1015.15
2018-09-17T06:17:19.116Z,1015.20
2018-09-17T06:18:19.069Z,1015.18
2018-09-17T06:19:19.033Z,1015.20
2018-09-17T06:20:19.015Z,1015.27
2018-09-17T06:21:18.970Z,1015.24
2018-09-17T06:22:18.907Z,1015.27
2018-09-17T06:23:18.902Z,1015.29
2018-09-17T06:24:18.832Z,1015.33
2018-09-17T06:25:18.844Z,1015.28
2018-09-17T06:26:18.787Z,1015.32
2018-09-17T06:27:18.720Z,1015.33
2018-09-17T06:28:18.703Z,1015.37
2018-09-17T06:29:18.647Z,1015.39
2018-09-17T06:30:18.630Z,1015.36
2018-09-17T06:31:18.575Z,1015.41
2018-09-17T06:32:18.533Z,1015.42
2018-09-17T06:33:18.498Z,1015.43
2018-09-17T06:34:18.453Z,1015.41
2018-09-17T06:35:18.443Z,1015.47
2018-09-17T06:36:18.447Z,1015.43
2018-09-17T06:37:18.351Z,1015.45
2018-09-17T06:38:18.311Z,1015.45
2018-09-17T06:39:18.284Z,1015.41
2018-09-17T06:40:18.235Z,1015.43
2018-09-17T06:41:18.222Z,1015.48
2018-09-17T06:42:18.170Z,1015.52
2018-09-17T06:43:18.127Z,1015.51
2018-09-17T06:44:18.114Z,1015.54
2018-09-17T06:45:18.058Z,1015.63
2018-09-17T06:46:18.058Z,1015.59
2018-09-17T06:47:18.001Z,1015.59
2018-09-17T06:48:17.944Z,1015.64
2018-09-17T06:49:17.915Z,1015.66
2018-09-17T06:50:17.898Z,1015.68
2018-09-17T06:51:17.918Z,1015.68
2018-09-17T06:52:17.821Z,1015.69
2018-09-17T06:53:17.783Z,1015.71
2018-09-17T06:54:17.743Z,1015.77
2018-09-17T06:55:17.717Z,1015.78
2018-09-17T06:56:17.679Z,1015.81
2018-09-17T06:57:17.668Z,1015.87
2018-09-17T06:58:17.613Z,1015.83
2018-09-17T06:59:17.573Z,1015.86
2018-09-17T07:00:17.543Z,1015.90
2018-09-17T07:01:17.538Z,1015.85
2018-09-17T07:02:17.466Z,1015.83
2018-09-17T07:03:17.434Z,1015.86
2018-09-17T07:04:17.403Z,1015.80
2018-09-17T07:05:17.367Z,1015.85
2018-09-17T07:06:17.368Z,1015.82
2018-09-17T07:07:17.345Z,1015.88
2018-09-17T07:08:17.254Z,1015.90
2018-09-17T07:09:17.239Z,1015.90
2018-09-17T07:10:17.197Z,1015.89
2018-09-17T07:11:17.157Z,1015.90
2018-09-17T07:12:17.145Z,1015.86
2018-09-17T07:13:17.143Z,1015.88
2018-09-17T07:14:17.063Z,1015.89
2018-09-17T07:15:17.063Z,1015.89
2018-09-17T07:16:17.007Z,1015.88
2018-09-17T07:17:16.958Z,1015.83
2018-09-17T07:18:16.953Z,1015.83
2018-09-17T07:19:16.892Z,1015.84
2018-09-17T07:20:26.347Z,1015.86
2018-09-17T07:21:16.864Z,1015.94
2018-09-17T07:22:16.782Z,1015.92
2018-09-17T07:23:16.880Z,1015.99
2018-09-17T07:24:16.715Z,1015.98
2018-09-17T07:25:16.735Z,1015.98
2018-09-17T07:26:16.648Z,1015.98
2018-09-17T07:27:16.625Z,1015.99
2018-09-17T07:28:16.615Z,1015.92
2018-09-17T07:29:16.554Z,1015.89
2018-09-17T07:30:16.525Z,1015.91
2018-09-17T07:31:16.510Z,1015.94
2018-09-17T07:32:16.486Z,1015.92
2018-09-17T07:33:16.440Z,1015.97
2018-09-17T07:34:16.427Z,1016.05
2018-09-17T07:35:16.365Z,1016.04
2018-09-17T07:36:16.358Z,1016.11
2018-09-17T07:37:16.333Z,1016.17
2018-09-17T07:38:16.258Z,1016.21
2018-09-17T07:39:16.295Z,1016.22
2018-09-17T07:40:16.207Z,1016.25
2018-09-17T07:41:16.160Z,1016.30
2018-09-17T07:42:26.460Z,1016.36
2018-09-17T07:43:27.280Z,1016.47
2018-09-17T07:44:16.085Z,1016.61
2018-09-17T07:45:16.033Z,1016.72
2018-09-17T07:46:16.050Z,1016.76
2018-09-17T07:47:16.008Z,1016.89
2018-09-17T07:48:15.974Z,1016.90
2018-09-17T07:49:15.910Z,1016.93
2018-09-17T07:50:15.878Z,1017.09
2018-09-17T07:51:15.823Z,1017.18
2018-09-17T07:52:15.789Z,1017.25
2018-09-17T07:53:15.828Z,1017.32
2018-09-17T07:54:15.744Z,1017.16
2018-09-17T07:55:15.710Z,1017.11
2018-09-17T07:56:15.657Z,1016.98
2018-09-17T07:57:15.624Z,1016.87
2018-09-17T07:58:15.598Z,1016.74
2018-09-17T07:59:15.574Z,1016.62
2018-09-17T08:00:15.549Z,1016.43
2018-09-17T08:01:15.492Z,1016.43
2018-09-17T08:02:15.467Z,1016.39
2018-09-17T08:03:15.439Z,1016.31
2018-09-17T08:04:15.416Z,1016.33
2018-09-17T08:05:15.359Z,1015.93
2018-09-17T08:06:15.390Z,1016.22
2018-09-17T08:07:15.334Z,1016.30
2018-09-17T08:08:15.284Z,1016.24
2018-09-17T08:09:15.250Z,1016.27
2018-09-17T08:10:15.222Z,1016.23
2018-09-17T08:11:15.215Z,1016.23
2018-09-17T08:12:15.154Z,1016.25
2018-09-17T08:13:15.107Z,1016.25
2018-09-17T08:14:15.077Z,1016.26
2018-09-17T08:15:15.057Z,1016.24
2018-09-17T08:16:15.055Z,1016.28
2018-09-17T08:17:15.001Z,1016.30
2018-09-17T08:18:14.944Z,1016.23
2018-09-17T08:19:14.925Z,1016.21
2018-09-17T08:20:14.899Z,1016.23
2018-09-17T08:21:14.870Z,1016.17
2018-09-17T08:22:14.824Z,1016.22
2018-09-17T08:23:14.789Z,1016.21
2018-09-17T08:24:26.047Z,1016.22
2018-09-17T08:25:14.743Z,1016.20
2018-09-17T08:26:14.715Z,1016.12
2018-09-17T08:27:14.653Z,1016.12
2018-09-17T08:28:14.619Z,1016.05
2018-09-17T08:29:14.590Z,1015.95
2018-09-17T08:30:14.558Z,1016.01
2018-09-17T08:31:14.534Z,1016.04
2018-09-17T08:32:14.555Z,1015.99
2018-09-17T08:33:14.504Z,1015.88
2018-09-17T08:34:15.731Z,1015.77
2018-09-17T08:35:14.395Z,1015.73
2018-09-17T08:36:14.358Z,1015.66
2018-09-17T08:37:14.370Z,1015.61
2018-09-17T08:38:14.356Z,1015.62
2018-09-17T08:39:14.285Z,1015.67
2018-09-17T08:40:14.279Z,1015.66
2018-09-17T08:41:14.250Z,1015.75
2018-09-17T08:42:14.199Z,1015.73
2018-09-17T08:43:14.150Z,1015.64
2018-09-17T08:44:14.113Z,1015.71
2018-09-17T08:45:14.091Z,1015.66
2018-09-17T08:46:14.059Z,1015.63
2018-09-17T08:47:14.060Z,1015.65
2018-09-17T08:48:14.000Z,1015.73
2018-09-17T08:49:13.978Z,1015.77
2018-09-17T08:50:13.934Z,1015.73
2018-09-17T08:51:13.884Z,1015.72
2018-09-17T08:52:13.939Z,1015.81
2018-09-17T08:53:13.870Z,1015.78
2018-09-17T08:54:13.806Z,1015.79
2018-09-17T08:55:13.761Z,1015.79
2018-09-17T08:56:13.731Z,1015.79
2018-09-17T08:57:13.694Z,1015.82
2018-09-17T08:58:13.780Z,1015.90
2018-09-17T08:59:13.638Z,1015.85
2018-09-17T09:00:13.628Z,1015.85
2018-09-17T09:01:13.568Z,1015.88
2018-09-17T09:02:13.545Z,1015.84
2018-09-17T09:03:13.529Z,1015.84
2018-09-17T09:04:13.493Z,1015.86
2018-09-17T09:05:13.495Z,1015.86
2018-09-17T09:06:13.404Z,1015.80
2018-09-17T09:07:13.379Z,1015.78
2018-09-17T09:08:13.349Z,1015.77
2018-09-17T09:09:13.327Z,1015.75
2018-09-17T09:10:13.272Z,1015.74
2018-09-17T09:11:13.243Z,1015.74
2018-09-17T09:12:13.236Z,1015.82
2018-09-17T09:13:13.185Z,1015.88
2018-09-17T09:14:13.165Z,1015.86
2018-09-17T09:15:13.114Z,1015.91
2018-09-17T09:16:13.082Z,1015.83
2018-09-17T09:17:13.061Z,1015.77
2018-09-17T09:18:13.027Z,1015.77
2018-09-17T09:19:13.040Z,1015.73
2018-09-17T09:20:12.969Z,1015.68
2018-09-17T09:21:12.939Z,1015.68
2018-09-17T09:22:12.913Z,1015.71
2018-09-17T09:23:12.868Z,1015.73
2018-09-17T09:24:12.846Z,1015.70
2018-09-17T09:25:12.831Z,1015.70
2018-09-17T09:26:12.790Z,1015.70
2018-09-17T09:27:12.758Z,1015.65
2018-09-17T09:28:12.818Z,1015.63
2018-09-17T09:29:12.670Z,1015.63
2018-09-17T09:30:12.747Z,1015.61
2018-09-17T09:31:12.804Z,1015.64
2018-09-17T09:32:12.589Z,1015.62
2018-09-17T09:33:12.564Z,1015.65
2018-09-17T09:34:12.544Z,1015.58
2018-09-17T09:35:12.492Z,1015.58
2018-09-17T09:36:12.488Z,1015.60
2018-09-17T09:37:12.445Z,1015.67
2018-09-17T09:38:12.452Z,1015.75
2018-09-17T09:39:12.361Z,1015.66
2018-09-17T09:40:12.346Z,1015.65
2018-09-17T09:41:12.348Z,1015.67
2018-09-17T09:42:12.305Z,1015.62
2018-09-17T09:43:12.246Z,1015.59
2018-09-17T09:44:12.221Z,1015.58
2018-09-17T09:45:12.191Z,1015.54
2018-09-17T09:46:12.195Z,1015.57
2018-09-17T09:47:12.119Z,1015.59
2018-09-17T09:48:12.116Z,1015.51
2018-09-17T09:49:12.086Z,1015.51
2018-09-17T09:50:12.043Z,1015.50
2018-09-17T09:51:12.022Z,1015.50
2018-09-17T09:52:12.006Z,1015.52
2018-09-17T09:53:11.950Z,1015.53
2018-09-17T09:54:11.921Z,1015.50
2018-09-17T09:55:11.912Z,1015.48
2018-09-17T09:56:11.879Z,1015.41
2018-09-17T09:57:11.861Z,1015.36
2018-09-17T09:58:11.821Z,1015.33
2018-09-17T09:59:11.774Z,1015.30
2018-09-17T10:00:11.753Z,1015.30
2018-09-17T10:01:11.713Z,1015.22
2018-09-17T10:02:11.729Z,1015.26
2018-09-17T10:03:11.665Z,1015.22
2018-09-17T10:04:11.620Z,1015.17
2018-09-17T10:05:11.596Z,1015.22
2018-09-17T10:06:11.564Z,1015.22
2018-09-17T10:07:11.536Z,1015.27
2018-09-17T10:08:11.531Z,1015.26
2018-09-17T10:09:11.476Z,1015.28
2018-09-17T10:10:11.444Z,1015.28
2018-09-17T10:11:11.434Z,1015.30
2018-09-17T10:12:11.407Z,1015.31
2018-09-17T10:13:11.398Z,1015.31
2018-09-17T10:14:11.344Z,1015.29
2018-09-17T10:15:11.294Z,1015.29
2018-09-17T10:16:11.291Z,1015.27
2018-09-17T10:17:11.237Z,1015.29
2018-09-17T10:18:11.201Z,1015.27
2018-09-17T10:19:11.217Z,1015.26
2018-09-17T10:20:11.173Z,1015.27
2018-09-17T10:21:11.131Z,1015.25
2018-09-17T10:22:11.109Z,1015.31
2018-09-17T10:23:11.107Z,1015.28
2018-09-17T10:24:11.066Z,1015.31
2018-09-17T10:25:11.003Z,1015.29
2018-09-17T10:26:11.010Z,1015.28
2018-09-17T10:27:10.957Z,1015.27
2018-09-17T10:28:10.925Z,1015.25
2018-09-17T10:29:10.930Z,1015.25
2018-09-17T10:30:10.864Z,1015.19
2018-09-17T10:31:10.846Z,1015.15
2018-09-17T10:32:10.832Z,1015.10
2018-09-17T10:33:10.778Z,1015.11
2018-09-17T10:34:10.790Z,1015.13
2018-09-17T10:35:10.727Z,1015.15
2018-09-17T10:36:10.714Z,1015.10
2018-09-17T10:37:10.670Z,1015.07
2018-09-17T10:38:10.639Z,1015.09
2018-09-17T10:39:10.642Z,1015.12
2018-09-17T10:40:10.584Z,1015.10
2018-09-17T10:41:10.565Z,1015.06
2018-09-17T10:42:10.539Z,1015.01
2018-09-17T10:43:10.537Z,1015.02
2018-09-17T10:44:10.515Z,1015.01
2018-09-17T10:45:10.469Z,1014.99
2018-09-17T10:46:10.435Z,1014.98
2018-09-17T10:47:10.390Z,1014.95
2018-09-17T10:48:10.364Z,1015.01
2018-09-17T10:49:10.429Z,1015.02
2018-09-17T10:50:10.322Z,1015.00
2018-09-17T10:51:10.263Z,1014.99
2018-09-17T10:52:10.245Z,1015.00
2018-09-17T10:53:10.234Z,1014.95
2018-09-17T10:54:10.199Z,1014.88
2018-09-17T10:55:10.207Z,1014.88
2018-09-17T10:56:10.171Z,1014.93
2018-09-17T10:57:10.101Z,1014.96
2018-09-17T10:58:10.077Z,1014.92
2018-09-17T10:59:10.051Z,1014.95
2018-09-17T11:00:10.022Z,1014.95
2018-09-17T11:01:10.039Z,1014.93
2018-09-17T11:02:09.954Z,1014.93
2018-09-17T11:03:09.928Z,1014.95
2018-09-17T11:04:09.926Z,1014.93
2018-09-17T11:05:09.879Z,1014.93
2018-09-17T11:06:09.870Z,1014.95
2018-09-17T11:07:09.825Z,1014.94
2018-09-17T11:08:09.867Z,1014.85
2018-09-17T11:09:09.777Z,1014.89
2018-09-17T11:10:09.728Z,1014.92
2018-09-17T11:11:09.740Z,1014.91
2018-09-17T11:12:09.697Z,1014.85
2018-09-17T11:13:09.647Z,1014.83
2018-09-17T11:14:09.613Z,1014.86
2018-09-17T11:15:09.578Z,1014.85
2018-09-17T11:16:09.551Z,1014.81
2018-09-17T11:17:09.592Z,1014.85
2018-09-17T11:18:09.520Z,1014.81
2018-09-17T11:19:09.517Z,1014.77
2018-09-17T11:20:09.440Z,1014.76
2018-09-17T11:21:09.514Z,1014.77
2018-09-17T11:22:09.406Z,1014.71
2018-09-17T11:23:09.384Z,1014.71
2018-09-17T11:24:09.328Z,1014.67
2018-09-17T11:25:09.340Z,1014.67
2018-09-17T11:26:09.292Z,1014.66
2018-09-17T11:27:09.292Z,1014.67
2018-09-17T11:28:09.241Z,1014.65
2018-09-17T11:29:09.219Z,1014.63
2018-09-17T11:30:09.165Z,1014.61
2018-09-17T11:31:09.175Z,1014.52
2018-09-17T11:32:09.174Z,1014.58
2018-09-17T11:33:09.213Z,1014.57
2018-09-17T11:34:09.084Z,1014.56
2018-09-17T11:35:09.030Z,1014.56
2018-09-17T11:36:09.038Z,1014.53
2018-09-17T11:37:08.964Z,1014.56
2018-09-17T11:38:08.965Z,1014.59
2018-09-17T11:39:08.910Z,1014.58
2018-09-17T11:40:08.887Z,1014.54
2018-09-17T11:41:08.877Z,1014.56
2018-09-17T11:42:08.847Z,1014.58
2018-09-17T11:43:08.834Z,1014.60
2018-09-17T11:44:08.791Z,1014.64
2018-09-17T11:45:08.764Z,1014.64
2018-09-17T11:46:08.722Z,1014.57
2018-09-17T11:47:08.717Z,1014.52
2018-09-17T11:48:08.728Z,1014.49
2018-09-17T11:49:08.630Z,1014.48
2018-09-17T11:50:08.621Z,1014.48
2018-09-17T11:51:08.609Z,1014.42
2018-09-17T11:52:08.593Z,1014.49
2018-09-17T11:53:18.162Z,1014.50
2018-09-17T11:54:08.695Z,1014.53
2018-09-17T11:55:08.591Z,1014.42
2018-09-17T11:56:08.463Z,1014.29
2018-09-17T11:57:08.465Z,1014.20
2018-09-17T11:58:08.386Z,1014.21
2018-09-17T11:59:08.401Z,1014.19
2018-09-17T12:00:08.341Z,1014.17
2018-09-17T12:01:08.314Z,1014.14
2018-09-17T12:02:08.297Z,1014.12
2018-09-17T12:03:18.692Z,1014.12
2018-09-17T12:04:08.266Z,1014.08
2018-09-17T12:05:08.204Z,1014.04